Klawock Airport
PAKW : now visible

Airfield :











YOU CAN JOIN US ON...

 
LOGIN :

Register | Disclaimer

   EN    FR    IT 

 









Legend :    VFR   Marginal VFR   IFR   Intensive IFR   Very Intensive IFR
Visi :
Ceiling :
>= 8 km
>= 3000ft
5 to 8 km
1000 to 3000 ft
1500m to 5 km
500 to 1000 ft
800 to 1500m
200 to 500 ft
< 800m
< 200 ft
Symbols :   Thunderstorms  Fog  Heavy snow  Heavy precipitations  Wind > 20 kt







- Airport Elevation : 80 ft
- IATA code : AKW


PAKW - Klawock

CURRENT METAR :
  • 170753Z AUTO 07008G17KT 10SM SCT047 BKN060 BKN100 12/09 A2943 RMK SLP966 T01170089 TSNO VIA AUTODIAL

EXPIRED METARs :
  • 170653Z AUTO 06012G22KT 10SM OVC047 12/09 A2942 RMK SLP962 T01220094 TSNO VIA AUTODIAL
  • 170553Z AUTO 05012G18KT 10SM BKN043 OVC055 12/09 A2942 RMK SLP961 60000 T01170094 10128 20111 53001 TSNO VIA AUTODIAL

TAF PAKW
Valid from the 17 at 08:00 until the 18 at 06:00 UTC


170753Z 1708/1806 06012KT P6SM VCSH BKN045 OVC060 WS020/11035KT
TEMPO 1708/1712 06012G22KT 6SM -SHRA OVC045
FM171700 03006KT P6SM SCT050 BKN090
FM172100 24006KT P6SM SCT050 AMD LTD TO CLD VIS AND WIND
No reported NOTAMs for that airfield.



MET'MAP, your aeronautical weather chart ! - Copyright ORBIFLY December 2007 - Disclaimer

ORBIFLY MET'MAP TEAM :

Programming & Development : Alexandra Zaïnal
Concept & Development : Baudouin d'Aumeries
Co-Development & Prog : Marc-Olivier Méhu
Technical & hardware support : Manuel Goepfert

Contact : metmap@orbifly.com




SOURCES & CREDITS :

   NOAA       Earth
Advisory